createdAt,value
2022-09-29T00:25:55.953Z,20
2022-09-29T00:55:54.887Z,18
2022-09-29T01:25:57.812Z,19
2022-09-29T01:55:55.195Z,19
2022-09-29T02:25:55.456Z,67
2022-09-29T02:55:52.889Z,19
2022-09-29T03:25:50.493Z,20
2022-09-29T03:55:48.183Z,20
2022-09-29T04:25:44.893Z,19
2022-09-29T04:55:42.164Z,19
2022-09-29T05:25:43.025Z,64
2022-09-29T05:55:38.374Z,64
2022-09-29T06:25:41.577Z,63
2022-09-29T06:55:44.534Z,62
2022-09-29T07:25:47.725Z,62
2022-09-29T07:55:45.385Z,65
2022-09-29T08:25:46.237Z,64
2022-09-29T08:55:49.893Z,64
2022-09-29T09:25:51.145Z,60
2022-09-29T09:55:57.292Z,62
2022-09-29T10:25:57.484Z,62
2022-09-29T10:56:00.116Z,64
2022-09-29T11:26:01.621Z,18
2022-09-29T11:56:05.967Z,19
2022-09-29T12:26:05.085Z,18
2022-09-29T12:56:06.336Z,60
2022-09-29T13:26:08.271Z,19
2022-09-29T13:56:06.247Z,62
2022-09-29T14:26:07.853Z,19
2022-09-29T14:56:10.550Z,62
2022-09-29T15:26:05.688Z,62
2022-09-29T15:56:08.815Z,60
2022-09-29T16:26:11.913Z,18
2022-09-29T16:56:08.996Z,60
2022-09-29T17:26:07.121Z,65
2022-09-29T17:56:05.329Z,64
2022-09-29T18:26:01.090Z,64
2022-09-29T18:55:58.476Z,232
2022-09-29T19:25:56.658Z,157
2022-09-29T19:55:58.374Z,150
2022-09-29T20:27:02.887Z,149
2022-09-29T20:56:54.488Z,149
2022-09-29T21:26:53.851Z,140
2022-09-29T21:56:57.202Z,140
2022-09-29T22:26:52.572Z,139
2022-09-29T22:56:54.765Z,136
2022-09-29T23:26:56.320Z,130
2022-09-29T23:56:53.115Z,127
